createdAt,value
2023-01-19T00:00:32.176Z,977.19
2023-01-19T00:01:32.051Z,977.14
2023-01-19T00:02:32.072Z,977.15
2023-01-19T00:03:32.025Z,977.22
2023-01-19T00:04:31.993Z,977.24
2023-01-19T00:05:32.012Z,977.18
2023-01-19T00:06:32.073Z,977.16
2023-01-19T00:07:31.965Z,977.20
2023-01-19T00:08:31.949Z,977.17
2023-01-19T00:09:31.945Z,977.15
2023-01-19T00:10:31.949Z,977.20
2023-01-19T00:11:31.922Z,977.19
2023-01-19T00:12:31.890Z,977.18
2023-01-19T00:13:31.891Z,977.15
2023-01-19T00:14:31.880Z,977.17
2023-01-19T00:15:31.930Z,977.21
2023-01-19T00:16:31.911Z,977.16
2023-01-19T00:17:31.832Z,977.16
2023-01-19T00:18:31.824Z,977.18
2023-01-19T00:19:31.878Z,977.14
2023-01-19T00:20:31.846Z,977.15
2023-01-19T00:21:31.801Z,977.19
2023-01-19T00:22:31.788Z,977.16
2023-01-19T00:23:31.759Z,977.13
2023-01-19T00:24:31.775Z,977.19
2023-01-19T00:25:31.794Z,977.18
2023-01-19T00:26:31.729Z,977.17
2023-01-19T00:27:31.729Z,977.17
2023-01-19T00:28:31.697Z,977.18
2023-01-19T00:29:31.697Z,977.24
2023-01-19T00:30:31.676Z,977.26
2023-01-19T00:31:31.730Z,977.28
2023-01-19T00:32:31.643Z,977.27
2023-01-19T00:33:31.639Z,977.26
2023-01-19T00:34:31.629Z,977.28
2023-01-19T00:35:31.608Z,977.30
2023-01-19T00:36:31.625Z,977.29
2023-01-19T00:37:31.600Z,977.32
2023-01-19T00:38:31.581Z,977.27
2023-01-19T00:39:31.566Z,977.31
2023-01-19T00:40:31.573Z,977.30
2023-01-19T00:41:31.562Z,977.33
2023-01-19T00:42:31.522Z,977.30
2023-01-19T00:43:31.557Z,977.33
2023-01-19T00:44:31.501Z,977.36
2023-01-19T00:45:31.512Z,977.32
2023-01-19T00:46:31.501Z,977.36
2023-01-19T00:47:31.480Z,977.38
2023-01-19T00:48:31.440Z,977.39
2023-01-19T00:49:31.435Z,977.35
2023-01-19T00:50:31.444Z,977.35
2023-01-19T00:51:31.433Z,977.39
2023-01-19T00:52:31.394Z,977.31
2023-01-19T00:53:31.382Z,977.41
2023-01-19T00:54:31.373Z,977.32
2023-01-19T00:55:31.372Z,977.37
2023-01-19T00:56:32.343Z,977.32
2023-01-19T00:57:31.332Z,977.26
2023-01-19T00:58:31.324Z,977.36
2023-01-19T00:59:31.303Z,977.36
2023-01-19T01:00:31.320Z,977.35
2023-01-19T01:01:45.496Z,977.35
2023-01-19T01:02:32.433Z,977.33
2023-01-19T01:03:31.268Z,977.29
2023-01-19T01:04:31.272Z,977.26
2023-01-19T01:05:31.248Z,977.27
2023-01-19T01:06:31.252Z,977.28
2023-01-19T01:07:31.213Z,977.26
2023-01-19T01:08:31.192Z,977.34
2023-01-19T01:09:31.189Z,977.32
2023-01-19T01:10:31.171Z,977.32
2023-01-19T01:11:31.200Z,977.37
2023-01-19T01:12:31.135Z,977.31
2023-01-19T01:13:31.386Z,977.33
2023-01-19T01:14:31.124Z,977.33
2023-01-19T01:15:31.166Z,977.38
2023-01-19T01:16:31.191Z,977.36
2023-01-19T01:17:31.077Z,977.40
2023-01-19T01:18:31.078Z,977.39
2023-01-19T01:19:31.047Z,977.43
2023-01-19T01:20:31.047Z,977.39
2023-01-19T01:21:31.066Z,977.36
2023-01-19T01:22:31.008Z,977.39
2023-01-19T01:23:31.026Z,977.37
2023-01-19T01:24:30.984Z,977.41
2023-01-19T01:25:31.071Z,977.42
2023-01-19T01:26:30.996Z,977.40
2023-01-19T01:27:30.952Z,977.41
2023-01-19T01:28:30.936Z,977.41
2023-01-19T01:29:30.944Z,977.38
2023-01-19T01:30:30.904Z,977.42
2023-01-19T01:31:31.033Z,977.44
2023-01-19T01:32:30.895Z,977.43
2023-01-19T01:33:40.994Z,977.43
2023-01-19T01:34:31.856Z,977.47
2023-01-19T01:35:30.892Z,977.40
2023-01-19T01:36:30.878Z,977.40
2023-01-19T01:37:30.843Z,977.44
2023-01-19T01:38:31.562Z,977.46
2023-01-19T01:39:30.801Z,977.41
2023-01-19T01:40:30.781Z,977.43
2023-01-19T01:41:30.806Z,977.38
2023-01-19T01:42:30.768Z,977.40
2023-01-19T01:43:30.741Z,977.47
2023-01-19T01:44:30.733Z,977.41
2023-01-19T01:45:30.801Z,977.40
2023-01-19T01:46:30.743Z,977.41
2023-01-19T01:47:30.700Z,977.41
2023-01-19T01:48:30.683Z,977.35
2023-01-19T01:49:30.671Z,977.33
2023-01-19T01:50:30.659Z,977.36
2023-01-19T01:51:30.682Z,977.31
2023-01-19T01:52:30.640Z,977.41
2023-01-19T01:53:30.621Z,977.41
2023-01-19T01:54:30.620Z,977.41
2023-01-19T01:55:30.604Z,977.40
2023-01-19T01:56:30.608Z,977.36
2023-01-19T01:57:30.588Z,977.39
2023-01-19T01:58:30.546Z,977.36
2023-01-19T01:59:30.585Z,977.36
2023-01-19T02:00:30.545Z,977.33
2023-01-19T02:01:30.697Z,977.37
2023-01-19T02:02:30.533Z,977.31
2023-01-19T02:03:30.533Z,977.37
2023-01-19T02:04:30.466Z,977.35
2023-01-19T02:05:30.473Z,977.41
2023-01-19T02:06:30.480Z,977.40
2023-01-19T02:07:30.458Z,977.39
2023-01-19T02:08:30.447Z,977.37
2023-01-19T02:09:30.438Z,977.37
2023-01-19T02:10:30.396Z,977.36
2023-01-19T02:11:30.424Z,977.38
2023-01-19T02:12:30.392Z,977.37
2023-01-19T02:13:30.363Z,977.36
2023-01-19T02:14:30.344Z,977.34
2023-01-19T02:15:30.417Z,977.26
2023-01-19T02:16:30.388Z,977.30
2023-01-19T02:17:30.324Z,977.30
2023-01-19T02:18:30.310Z,977.27
2023-01-19T02:19:30.301Z,977.22
2023-01-19T02:20:30.278Z,977.25
2023-01-19T02:21:30.350Z,977.25
2023-01-19T02:22:30.287Z,977.20
2023-01-19T02:23:30.234Z,977.31
2023-01-19T02:24:30.223Z,977.29
2023-01-19T02:25:30.214Z,977.26
2023-01-19T02:26:30.244Z,977.26
2023-01-19T02:27:30.204Z,977.32
2023-01-19T02:28:30.187Z,977.33
2023-01-19T02:29:30.173Z,977.36
2023-01-19T02:30:30.182Z,977.35
2023-01-19T02:31:30.183Z,977.34
2023-01-19T02:32:30.123Z,977.35
2023-01-19T02:33:30.128Z,977.39
2023-01-19T02:34:30.094Z,977.37
2023-01-19T02:35:30.094Z,977.36
2023-01-19T02:36:30.135Z,977.42
2023-01-19T02:37:30.163Z,977.39
2023-01-19T02:38:30.070Z,977.38
2023-01-19T02:39:30.035Z,977.38
2023-01-19T02:40:30.061Z,977.42
2023-01-19T02:41:30.050Z,977.45
2023-01-19T02:42:29.994Z,977.45
2023-01-19T02:43:29.997Z,977.37
2023-01-19T02:44:29.960Z,977.42
2023-01-19T02:45:29.998Z,977.37
2023-01-19T02:46:29.972Z,977.43
2023-01-19T02:47:29.930Z,977.36
2023-01-19T02:48:29.925Z,977.42
2023-01-19T02:49:30.739Z,977.39
2023-01-19T02:50:31.628Z,977.36
2023-01-19T02:51:29.911Z,977.37
2023-01-19T02:52:29.858Z,977.35
2023-01-19T02:53:29.857Z,977.34
2023-01-19T02:54:29.827Z,977.41
2023-01-19T02:55:29.832Z,977.37
2023-01-19T02:56:29.868Z,977.35
2023-01-19T02:57:30.597Z,977.33
2023-01-19T02:58:29.790Z,977.33
2023-01-19T02:59:29.776Z,977.43
2023-01-19T03:00:29.756Z,977.39
2023-01-19T03:01:29.835Z,977.42
2023-01-19T03:02:29.751Z,977.38
2023-01-19T03:03:29.745Z,977.33
2023-01-19T03:04:29.722Z,977.38
2023-01-19T03:05:29.703Z,977.36
2023-01-19T03:06:29.716Z,977.33
2023-01-19T03:07:29.684Z,977.28
2023-01-19T03:08:29.738Z,977.33
2023-01-19T03:09:29.667Z,977.29
2023-01-19T03:10:29.624Z,977.33
2023-01-19T03:11:29.669Z,977.33
2023-01-19T03:12:29.613Z,977.33
2023-01-19T03:13:29.596Z,977.36
2023-01-19T03:14:29.583Z,977.31
2023-01-19T03:15:29.649Z,977.26
2023-01-19T03:16:29.589Z,977.35
2023-01-19T03:17:29.593Z,977.32
2023-01-19T03:18:29.553Z,977.33
2023-01-19T03:19:29.522Z,977.36
2023-01-19T03:20:29.501Z,977.34
2023-01-19T03:21:29.518Z,977.34
2023-01-19T03:22:29.503Z,977.33
2023-01-19T03:23:29.473Z,977.36
2023-01-19T03:24:29.465Z,977.31
2023-01-19T03:25:29.467Z,977.35
2023-01-19T03:26:29.428Z,977.39
2023-01-19T03:27:29.451Z,977.36
2023-01-19T03:28:29.418Z,977.38
2023-01-19T03:29:29.397Z,977.33
2023-01-19T03:30:29.392Z,977.35
2023-01-19T03:31:29.377Z,977.36
2023-01-19T03:32:29.390Z,977.39
2023-01-19T03:33:29.349Z,977.32
2023-01-19T03:34:29.344Z,977.38
2023-01-19T03:35:29.321Z,977.34
2023-01-19T03:36:29.305Z,977.31
2023-01-19T03:37:29.338Z,977.34
2023-01-19T03:38:29.285Z,977.36
2023-01-19T03:39:29.261Z,977.28
2023-01-19T03:40:29.262Z,977.32
2023-01-19T03:41:29.249Z,977.22
2023-01-19T03:42:29.258Z,977.24
2023-01-19T03:43:29.227Z,977.22
2023-01-19T03:44:29.208Z,977.25
2023-01-19T03:45:29.198Z,977.19
2023-01-19T03:46:29.237Z,977.21
2023-01-19T03:47:29.191Z,977.22
2023-01-19T03:48:29.154Z,977.17
2023-01-19T03:49:29.220Z,977.20
2023-01-19T03:50:29.127Z,977.20
2023-01-19T03:51:29.133Z,977.21
2023-01-19T03:52:29.136Z,977.14
2023-01-19T03:53:29.089Z,977.18
2023-01-19T03:54:29.077Z,977.17
2023-01-19T03:55:29.060Z,977.25
2023-01-19T03:56:29.058Z,977.18
2023-01-19T03:57:29.077Z,977.19
2023-01-19T03:58:29.051Z,977.22
2023-01-19T03:59:29.069Z,977.29
2023-01-19T04:00:29.052Z,977.23
2023-01-19T04:01:29.113Z,977.19
2023-01-19T04:02:29.044Z,977.22
2023-01-19T04:03:28.982Z,977.19
2023-01-19T04:04:28.944Z,977.18
2023-01-19T04:05:28.944Z,977.23
2023-01-19T04:06:28.933Z,977.25
2023-01-19T04:07:28.959Z,977.19
2023-01-19T04:08:28.903Z,977.24
2023-01-19T04:09:28.895Z,977.22
2023-01-19T04:10:28.936Z,977.20
2023-01-19T04:11:28.861Z,977.19
2023-01-19T04:12:28.881Z,977.20
2023-01-19T04:13:28.843Z,977.25
2023-01-19T04:14:28.839Z,977.20
2023-01-19T04:15:28.830Z,977.17
2023-01-19T04:16:28.792Z,977.19
2023-01-19T04:17:28.810Z,977.19
2023-01-19T04:18:28.773Z,977.18
2023-01-19T04:19:28.752Z,977.18
2023-01-19T04:20:28.752Z,977.17
2023-01-19T04:21:28.771Z,977.19
2023-01-19T04:22:28.757Z,977.19
2023-01-19T04:23:28.707Z,977.15
2023-01-19T04:24:28.704Z,977.16
2023-01-19T04:25:28.680Z,977.14
2023-01-19T04:26:28.712Z,977.17
2023-01-19T04:27:28.678Z,977.16
2023-01-19T04:28:28.691Z,977.15
2023-01-19T04:29:28.636Z,977.19
2023-01-19T04:30:28.660Z,977.13
2023-01-19T04:31:28.648Z,977.16
2023-01-19T04:32:28.628Z,977.14
2023-01-19T04:33:28.593Z,977.16
2023-01-19T04:34:28.587Z,977.15
2023-01-19T04:35:28.572Z,977.15
2023-01-19T04:36:28.563Z,977.14
2023-01-19T04:37:28.576Z,977.09
2023-01-19T04:38:28.525Z,977.00
2023-01-19T04:39:28.515Z,977.06
2023-01-19T04:40:28.528Z,977.07
2023-01-19T04:41:32.582Z,977.04
2023-01-19T04:42:28.498Z,977.04
2023-01-19T04:43:28.476Z,977.08
2023-01-19T04:44:28.435Z,977.04
2023-01-19T04:45:28.439Z,977.06
2023-01-19T04:46:28.475Z,977.02
2023-01-19T04:47:28.443Z,977.02
2023-01-19T04:48:28.395Z,977.02
2023-01-19T04:49:28.374Z,977.07
2023-01-19T04:50:28.363Z,977.06
2023-01-19T04:51:28.343Z,977.08
2023-01-19T04:52:28.374Z,977.05
2023-01-19T04:53:28.335Z,977.04
2023-01-19T04:54:28.546Z,977.02
2023-01-19T04:55:28.318Z,977.10
2023-01-19T04:56:28.290Z,977.11
2023-01-19T04:57:28.304Z,977.09
2023-01-19T04:58:28.274Z,977.04
2023-01-19T04:59:28.253Z,977.09
2023-01-19T05:00:28.251Z,977.03
2023-01-19T05:01:28.304Z,977.03
2023-01-19T05:02:28.278Z,977.00
2023-01-19T05:03:28.343Z,977.06
2023-01-19T05:04:28.216Z,977.07
2023-01-19T05:05:28.187Z,977.06
2023-01-19T05:06:28.164Z,977.05
2023-01-19T05:07:28.210Z,977.02
2023-01-19T05:08:28.131Z,977.05
2023-01-19T05:09:28.124Z,977.02
2023-01-19T05:10:28.132Z,976.98
2023-01-19T05:11:28.110Z,976.98
2023-01-19T05:12:28.109Z,976.96
2023-01-19T05:13:28.072Z,977.03
2023-01-19T05:14:28.067Z,977.05
2023-01-19T05:15:28.134Z,976.98
2023-01-19T05:16:28.100Z,977.00
2023-01-19T05:17:28.040Z,977.07
2023-01-19T05:18:28.008Z,977.08
2023-01-19T05:19:28.010Z,977.08
2023-01-19T05:20:27.990Z,977.00
2023-01-19T05:21:27.969Z,977.00
2023-01-19T05:22:27.990Z,976.94
2023-01-19T05:23:27.939Z,976.99
2023-01-19T05:24:27.940Z,977.04
2023-01-19T05:25:27.926Z,977.04
2023-01-19T05:26:27.921Z,977.06
2023-01-19T05:27:27.937Z,977.01
2023-01-19T05:28:27.887Z,977.03
2023-01-19T05:29:27.895Z,977.11
2023-01-19T05:30:27.955Z,977.03
2023-01-19T05:31:28.145Z,977.06
2023-01-19T05:32:28.108Z,977.07
2023-01-19T05:33:28.680Z,977.04
2023-01-19T05:34:28.013Z,977.06
2023-01-19T05:35:35.712Z,977.09
2023-01-19T05:36:31.299Z,977.01
2023-01-19T05:37:27.865Z,977.04
2023-01-19T05:38:35.497Z,976.97
2023-01-19T05:39:29.050Z,977.09
2023-01-19T05:40:27.960Z,977.03
2023-01-19T05:41:27.891Z,977.10
2023-01-19T05:42:28.554Z,977.07
2023-01-19T05:43:27.768Z,977.08
2023-01-19T05:44:32.040Z,977.11
2023-01-19T05:45:27.845Z,977.04
2023-01-19T05:46:27.891Z,977.07
2023-01-19T05:47:27.693Z,977.06
2023-01-19T05:48:28.317Z,977.05
2023-01-19T05:49:27.715Z,977.03
2023-01-19T05:50:27.924Z,977.00
2023-01-19T05:51:27.775Z,976.98
2023-01-19T05:52:27.927Z,977.04
2023-01-19T05:53:27.711Z,976.95
2023-01-19T05:54:29.103Z,976.98
2023-01-19T05:55:27.881Z,976.96
2023-01-19T05:56:27.521Z,977.02
2023-01-19T05:57:27.553Z,976.94
2023-01-19T05:58:27.529Z,977.07
2023-01-19T05:59:27.647Z,977.01
2023-01-19T06:00:27.500Z,976.99
2023-01-19T06:01:27.735Z,976.99
2023-01-19T06:02:27.643Z,977.05
2023-01-19T06:03:27.716Z,976.98
2023-01-19T06:04:27.519Z,977.02
2023-01-19T06:05:27.677Z,977.03
2023-01-19T06:06:27.444Z,977.08
2023-01-19T06:07:29.130Z,976.98
2023-01-19T06:08:27.615Z,977.01
2023-01-19T06:09:27.655Z,977.00
2023-01-19T06:10:27.488Z,977.01
2023-01-19T06:11:27.509Z,977.10
2023-01-19T06:12:27.463Z,977.04
2023-01-19T06:13:27.390Z,977.01
2023-01-19T06:14:27.611Z,977.01
2023-01-19T06:15:27.353Z,976.95
2023-01-19T06:16:27.483Z,976.94
2023-01-19T06:17:28.278Z,976.90
2023-01-19T06:18:27.244Z,976.93
2023-01-19T06:19:27.235Z,976.93
2023-01-19T06:20:27.228Z,976.89
2023-01-19T06:21:27.198Z,976.94
2023-01-19T06:22:27.217Z,976.97
2023-01-19T06:23:27.167Z,977.02
2023-01-19T06:24:27.166Z,976.95
2023-01-19T06:25:27.163Z,977.02
2023-01-19T06:26:27.139Z,977.05
2023-01-19T06:27:27.119Z,976.97
2023-01-19T06:28:27.381Z,977.02
2023-01-19T06:29:28.659Z,976.99
2023-01-19T06:30:27.099Z,977.00
2023-01-19T06:31:27.454Z,976.98
2023-01-19T06:32:27.054Z,977.04
2023-01-19T06:33:27.099Z,977.08
2023-01-19T06:34:27.066Z,977.05
2023-01-19T06:35:27.030Z,977.05
2023-01-19T06:36:27.023Z,977.08
2023-01-19T06:37:26.998Z,977.04
2023-01-19T06:38:27.007Z,977.03
2023-01-19T06:39:26.978Z,977.04
2023-01-19T06:40:26.968Z,976.99
2023-01-19T06:41:26.948Z,977.07
2023-01-19T06:42:26.947Z,977.06
2023-01-19T06:43:27.056Z,977.06
2023-01-19T06:44:26.923Z,977.16
2023-01-19T06:45:26.927Z,977.02
2023-01-19T06:46:26.898Z,977.04
2023-01-19T06:47:26.864Z,977.02
2023-01-19T06:48:26.911Z,977.08
2023-01-19T06:49:26.835Z,977.03
2023-01-19T06:50:26.832Z,977.11
2023-01-19T06:51:26.762Z,977.11
2023-01-19T06:52:26.813Z,977.08
2023-01-19T06:53:26.813Z,977.11
2023-01-19T06:54:26.752Z,977.11
2023-01-19T06:55:27.683Z,977.07
2023-01-19T06:56:26.715Z,977.14
2023-01-19T06:57:26.684Z,977.17
2023-01-19T06:58:26.767Z,977.15
2023-01-19T06:59:26.662Z,977.21
2023-01-19T07:00:26.660Z,977.15
2023-01-19T07:01:26.682Z,977.17
2023-01-19T07:02:28.615Z,977.20
2023-01-19T07:03:26.684Z,977.08
2023-01-19T07:04:26.605Z,977.06
2023-01-19T07:05:26.590Z,977.14
2023-01-19T07:06:26.585Z,977.10
2023-01-19T07:07:26.562Z,977.20
2023-01-19T07:08:26.808Z,977.18
2023-01-19T07:09:26.530Z,977.23
2023-01-19T07:10:26.525Z,977.20
2023-01-19T07:11:31.966Z,977.22
2023-01-19T07:12:26.509Z,977.24
2023-01-19T07:13:26.531Z,977.17
2023-01-19T07:14:26.470Z,977.25
2023-01-19T07:15:26.458Z,977.28
2023-01-19T07:16:26.485Z,977.25
2023-01-19T07:17:26.445Z,977.27
2023-01-19T07:18:26.448Z,977.34
2023-01-19T07:19:26.401Z,977.38
2023-01-19T07:20:26.463Z,977.38
2023-01-19T07:21:28.919Z,977.34
2023-01-19T07:22:26.363Z,977.39
2023-01-19T07:23:26.376Z,977.38
2023-01-19T07:24:26.356Z,977.41
2023-01-19T07:25:26.316Z,977.45
2023-01-19T07:26:26.315Z,977.42
2023-01-19T07:27:26.335Z,977.46
2023-01-19T07:28:26.323Z,977.43
2023-01-19T07:29:26.275Z,977.47
2023-01-19T07:30:26.298Z,977.51
2023-01-19T07:31:26.603Z,977.54
2023-01-19T07:32:26.237Z,977.44
2023-01-19T07:33:26.341Z,977.49
2023-01-19T07:34:26.231Z,977.49
2023-01-19T07:35:26.205Z,977.52
2023-01-19T07:36:26.202Z,977.53
2023-01-19T07:37:26.172Z,977.50
2023-01-19T07:38:26.211Z,977.51
2023-01-19T07:39:26.154Z,977.51
2023-01-19T07:40:26.147Z,977.47
2023-01-19T07:41:26.151Z,977.56
2023-01-19T07:42:26.103Z,977.52
2023-01-19T07:43:26.133Z,977.55
2023-01-19T07:44:26.089Z,977.52
2023-01-19T07:45:27.854Z,977.61
2023-01-19T07:46:26.136Z,977.61
2023-01-19T07:47:26.045Z,977.57
2023-01-19T07:48:26.083Z,977.61
2023-01-19T07:49:26.022Z,977.64
2023-01-19T07:50:26.026Z,977.60
2023-01-19T07:51:25.982Z,977.63
2023-01-19T07:52:25.983Z,977.62
2023-01-19T07:53:25.985Z,977.60
2023-01-19T07:54:25.979Z,977.64
2023-01-19T07:55:25.932Z,977.62
2023-01-19T07:56:25.933Z,977.68
2023-01-19T07:57:25.930Z,977.73
2023-01-19T07:58:25.944Z,977.73
2023-01-19T07:59:25.890Z,977.71
2023-01-19T08:00:25.940Z,977.72
2023-01-19T08:01:25.928Z,977.74
2023-01-19T08:02:25.975Z,977.74
2023-01-19T08:03:25.867Z,977.76
2023-01-19T08:04:25.865Z,977.66
2023-01-19T08:05:25.802Z,977.76
2023-01-19T08:06:25.807Z,977.71
2023-01-19T08:07:25.807Z,977.77
2023-01-19T08:08:25.800Z,977.75
2023-01-19T08:09:25.773Z,977.79
2023-01-19T08:10:25.749Z,977.80
2023-01-19T08:11:25.752Z,977.75
2023-01-19T08:12:25.718Z,977.76
2023-01-19T08:13:25.735Z,977.83
2023-01-19T08:14:25.699Z,977.80
2023-01-19T08:15:25.790Z,977.78
2023-01-19T08:16:25.828Z,977.82
2023-01-19T08:17:25.868Z,977.82
2023-01-19T08:18:25.688Z,977.86
2023-01-19T08:19:25.629Z,977.84
2023-01-19T08:20:25.889Z,977.79
2023-01-19T08:21:26.349Z,977.85
2023-01-19T08:22:25.823Z,977.85
2023-01-19T08:23:25.651Z,977.78
2023-01-19T08:24:25.571Z,977.78
2023-01-19T08:25:25.548Z,977.79
2023-01-19T08:26:25.556Z,977.82
2023-01-19T08:27:25.538Z,977.82
2023-01-19T08:28:25.585Z,977.84
2023-01-19T08:29:25.515Z,977.81
2023-01-19T08:30:25.502Z,977.83
2023-01-19T08:31:25.547Z,977.81
2023-01-19T08:32:25.507Z,977.84
2023-01-19T08:33:25.493Z,977.87
2023-01-19T08:34:25.463Z,977.86
2023-01-19T08:35:25.448Z,977.84
2023-01-19T08:36:25.420Z,977.89
2023-01-19T08:37:25.407Z,977.86
2023-01-19T08:38:25.421Z,977.90
2023-01-19T08:39:25.382Z,977.88
2023-01-19T08:40:25.364Z,977.86
2023-01-19T08:41:25.408Z,977.90
2023-01-19T08:42:25.332Z,977.92
2023-01-19T08:43:25.368Z,977.95
2023-01-19T08:44:25.323Z,977.91
2023-01-19T08:45:25.295Z,977.95
2023-01-19T08:46:25.461Z,977.94
2023-01-19T08:47:29.672Z,977.98
2023-01-19T08:48:25.295Z,978.00
2023-01-19T08:49:25.252Z,977.97
2023-01-19T08:50:25.310Z,977.97
2023-01-19T08:51:25.228Z,977.98
2023-01-19T08:52:25.209Z,978.05
2023-01-19T08:53:25.232Z,978.05
2023-01-19T08:54:25.206Z,978.04
2023-01-19T08:55:25.171Z,978.06
2023-01-19T08:56:25.171Z,978.08
2023-01-19T08:57:25.202Z,978.11
2023-01-19T08:58:25.161Z,978.11
2023-01-19T08:59:25.120Z,978.14
2023-01-19T09:00:25.123Z,978.07
2023-01-19T09:01:25.185Z,978.11
2023-01-19T09:02:25.164Z,978.12
2023-01-19T09:03:25.146Z,978.10
2023-01-19T09:04:25.052Z,978.12
2023-01-19T09:05:25.040Z,978.15
2023-01-19T09:06:25.028Z,978.15
2023-01-19T09:07:25.020Z,978.12
2023-01-19T09:08:25.040Z,978.15
2023-01-19T09:09:25.004Z,978.15
2023-01-19T09:10:25.009Z,978.14
2023-01-19T09:11:24.957Z,978.12
2023-01-19T09:12:24.959Z,978.16
2023-01-19T09:13:24.967Z,978.19
2023-01-19T09:14:24.918Z,978.18
2023-01-19T09:15:24.909Z,978.22
2023-01-19T09:16:25.063Z,978.20
2023-01-19T09:17:24.902Z,978.22
2023-01-19T09:18:24.902Z,978.20
2023-01-19T09:19:24.855Z,978.18
2023-01-19T09:20:24.858Z,978.21
2023-01-19T09:21:24.835Z,978.20
2023-01-19T09:22:24.817Z,978.27
2023-01-19T09:23:24.848Z,978.28
2023-01-19T09:24:24.798Z,978.32
2023-01-19T09:25:24.802Z,978.30
2023-01-19T09:26:24.775Z,978.38
2023-01-19T09:27:24.757Z,978.31
2023-01-19T09:28:24.777Z,978.36
2023-01-19T09:29:24.726Z,978.37
2023-01-19T09:30:24.739Z,978.33
2023-01-19T09:31:24.813Z,978.34
2023-01-19T09:32:24.685Z,978.40
2023-01-19T09:33:24.729Z,978.40
2023-01-19T09:34:24.663Z,978.41
2023-01-19T09:35:24.651Z,978.40
2023-01-19T09:36:24.647Z,978.36
2023-01-19T09:37:24.633Z,978.38
2023-01-19T09:38:24.662Z,978.41
2023-01-19T09:39:24.627Z,978.39
2023-01-19T09:40:24.593Z,978.36
2023-01-19T09:41:24.573Z,978.40
2023-01-19T09:42:24.625Z,978.40
2023-01-19T09:43:24.585Z,978.40
2023-01-19T09:44:24.532Z,978.38
2023-01-19T09:45:24.522Z,978.41
2023-01-19T09:46:24.609Z,978.39
2023-01-19T09:47:24.499Z,978.38
2023-01-19T09:48:24.525Z,978.44
2023-01-19T09:49:24.475Z,978.42
2023-01-19T09:50:24.452Z,978.42
2023-01-19T09:51:24.451Z,978.44
2023-01-19T09:52:24.444Z,978.41
2023-01-19T09:53:24.420Z,978.39
2023-01-19T09:54:24.439Z,978.49
2023-01-19T09:55:24.404Z,978.43
2023-01-19T09:56:24.397Z,978.49
2023-01-19T09:57:24.398Z,978.41
2023-01-19T09:58:24.417Z,978.47
2023-01-19T09:59:24.391Z,978.45
2023-01-19T10:00:24.344Z,978.42
2023-01-19T10:01:24.444Z,978.39
2023-01-19T10:02:24.298Z,978.41
2023-01-19T10:03:24.373Z,978.41
2023-01-19T10:04:24.311Z,978.46
2023-01-19T10:05:24.461Z,978.50
2023-01-19T10:06:24.271Z,978.47
2023-01-19T10:07:24.244Z,978.48
2023-01-19T10:08:24.219Z,978.47
2023-01-19T10:09:24.299Z,978.44
2023-01-19T10:10:24.211Z,978.39
2023-01-19T10:11:24.201Z,978.49
2023-01-19T10:12:24.199Z,978.49
2023-01-19T10:13:24.169Z,978.50
2023-01-19T10:14:24.190Z,978.51
2023-01-19T10:15:24.181Z,978.49
2023-01-19T10:16:24.163Z,978.56
2023-01-19T10:17:24.148Z,978.54
2023-01-19T10:18:24.087Z,978.57
2023-01-19T10:19:24.147Z,978.64
2023-01-19T10:20:24.079Z,978.60
2023-01-19T10:21:24.067Z,978.62
2023-01-19T10:22:24.061Z,978.64
2023-01-19T10:23:24.064Z,978.60
2023-01-19T10:24:24.062Z,978.68
2023-01-19T10:25:24.135Z,978.70
2023-01-19T10:26:23.996Z,978.74
2023-01-19T10:27:23.978Z,978.72
2023-01-19T10:28:23.967Z,978.74
2023-01-19T10:29:23.986Z,978.74
2023-01-19T10:30:23.967Z,978.71
2023-01-19T10:31:24.139Z,978.83
2023-01-19T10:32:23.919Z,978.84
2023-01-19T10:33:23.917Z,978.85
2023-01-19T10:34:24.040Z,978.84
2023-01-19T10:35:23.875Z,978.83
2023-01-19T10:36:23.862Z,978.84
2023-01-19T10:37:23.871Z,978.97
2023-01-19T10:38:23.836Z,978.80
2023-01-19T10:39:23.866Z,978.94
2023-01-19T10:40:23.821Z,978.94
2023-01-19T10:41:23.824Z,978.91
2023-01-19T10:42:23.797Z,978.89
2023-01-19T10:43:23.798Z,978.96
2023-01-19T10:44:23.849Z,978.94
2023-01-19T10:45:23.930Z,978.94
2023-01-19T10:46:23.818Z,978.98
2023-01-19T10:47:23.773Z,979.02
2023-01-19T10:48:23.706Z,978.98
2023-01-19T10:49:23.765Z,978.96
2023-01-19T10:50:23.775Z,979.05
2023-01-19T10:51:23.703Z,978.98
2023-01-19T10:52:23.697Z,978.97
2023-01-19T10:53:23.651Z,979.00
2023-01-19T10:54:23.682Z,979.05
2023-01-19T10:55:23.651Z,979.08
2023-01-19T10:56:23.652Z,979.10
2023-01-19T10:57:23.596Z,979.12
2023-01-19T10:58:23.585Z,979.08
2023-01-19T10:59:23.615Z,979.11
2023-01-19T11:00:23.564Z,979.13
2023-01-19T11:01:23.750Z,979.08
2023-01-19T11:02:23.749Z,979.05
2023-01-19T11:03:23.601Z,979.08
2023-01-19T11:04:23.624Z,979.07
2023-01-19T11:05:23.500Z,979.07
2023-01-19T11:06:23.487Z,979.04
2023-01-19T11:07:23.480Z,979.09
2023-01-19T11:08:23.472Z,979.05
2023-01-19T11:09:23.478Z,979.08
2023-01-19T11:10:23.498Z,979.10
2023-01-19T11:11:23.422Z,979.17
2023-01-19T11:12:23.423Z,979.14
2023-01-19T11:13:23.387Z,979.13
2023-01-19T11:14:23.428Z,979.22
2023-01-19T11:15:23.361Z,979.21
2023-01-19T11:16:23.378Z,979.21
2023-01-19T11:17:23.354Z,979.26
2023-01-19T11:18:23.335Z,979.25
2023-01-19T11:19:23.341Z,979.22
2023-01-19T11:20:23.315Z,979.24
2023-01-19T11:21:24.746Z,979.24
2023-01-19T11:22:23.287Z,979.20
2023-01-19T11:23:23.269Z,979.20
2023-01-19T11:24:23.557Z,979.24
2023-01-19T11:25:23.237Z,979.21
2023-01-19T11:26:23.222Z,979.23
2023-01-19T11:27:23.234Z,979.21
2023-01-19T11:28:23.197Z,979.21
2023-01-19T11:29:23.210Z,979.26
2023-01-19T11:30:23.165Z,979.28
2023-01-19T11:31:23.211Z,979.27
2023-01-19T11:32:23.143Z,979.33
2023-01-19T11:33:23.125Z,979.27
2023-01-19T11:34:23.154Z,979.24
2023-01-19T11:35:23.138Z,979.23
2023-01-19T11:36:23.120Z,979.28
2023-01-19T11:37:23.092Z,979.31
2023-01-19T11:38:23.108Z,979.22
2023-01-19T11:39:23.099Z,979.26
2023-01-19T11:40:23.031Z,979.24
2023-01-19T11:41:23.024Z,979.21
2023-01-19T11:42:23.024Z,979.30
2023-01-19T11:43:23.023Z,979.26
2023-01-19T11:44:23.015Z,979.21
2023-01-19T11:45:23.076Z,979.22
2023-01-19T11:46:22.985Z,979.26
2023-01-19T11:47:23.001Z,979.20
2023-01-19T11:48:22.932Z,979.23
2023-01-19T11:49:23.732Z,979.27
2023-01-19T11:50:22.923Z,979.26
2023-01-19T11:51:22.910Z,979.20
2023-01-19T11:52:22.901Z,979.27
2023-01-19T11:53:22.882Z,979.20
2023-01-19T11:54:22.892Z,979.27
2023-01-19T11:55:22.884Z,979.29
2023-01-19T11:56:22.840Z,979.30
2023-01-19T11:57:22.820Z,979.25
2023-01-19T11:58:22.815Z,979.29
2023-01-19T11:59:22.843Z,979.32
2023-01-19T12:00:22.791Z,979.32
2023-01-19T12:01:22.827Z,979.34
2023-01-19T12:02:22.795Z,979.38
2023-01-19T12:03:22.819Z,979.38
2023-01-19T12:04:22.773Z,979.39
2023-01-19T12:05:22.719Z,979.41
2023-01-19T12:06:22.708Z,979.43
2023-01-19T12:07:22.694Z,979.45
2023-01-19T12:08:22.680Z,979.46
2023-01-19T12:09:22.708Z,979.44
2023-01-19T12:10:22.648Z,979.45
2023-01-19T12:11:22.650Z,979.47
2023-01-19T12:12:22.630Z,979.45
2023-01-19T12:13:22.627Z,979.44
2023-01-19T12:14:22.629Z,979.48
2023-01-19T12:15:22.607Z,979.48
2023-01-19T12:16:22.664Z,979.47
2023-01-19T12:17:22.556Z,979.48
2023-01-19T12:18:22.589Z,979.48
2023-01-19T12:19:22.577Z,979.50
2023-01-19T12:20:22.529Z,979.51
2023-01-19T12:21:22.514Z,979.50
2023-01-19T12:22:22.508Z,979.50
2023-01-19T12:23:22.490Z,979.55
2023-01-19T12:24:22.536Z,979.58
2023-01-19T12:25:22.467Z,979.55
2023-01-19T12:26:22.445Z,979.59
2023-01-19T12:27:22.450Z,979.56
2023-01-19T12:28:22.427Z,979.54